ADDS TAF Data INFO
IDs: Format: Raw Decoded Include METARs

Data at: 2225 UTC 30 May 2015

Region: TOP
KATL 302130Z 3022/3124 15007KT P6SM SCT045 BKN060
  FM310100 14005KT P6SM FEW060 SCT250
  FM310900 13004KT P6SM BKN012
  FM311500 16005KT P6SM BKN025
  FM311700 19006KT P6SM VCSH SCT035 BKN050
  PROB30 3118/3124 3SM TSRA BKN025CB


KBOS 302030Z 3021/3124 21016G24KT P6SM FEW050
  FM310600 22014KT P6SM BKN015
  FM311300 23011KT P6SM -SHRA OVC015
  FM311500 24007KT 5SM -SHRA OVC015
  FM311700 02011KT 3SM -SHRA BR OVC008
  FM312200 03014G23KT 2SM -SHRA BR OVC008


KBWI 302036Z 3021/3124 16013KT P6SM SCT060
  FM310300 17009KT P6SM SCT045
  FM310600 18006KT P6SM BKN040
  FM311400 20006KT P6SM SCT070
  FM311700 19008KT P6SM BKN050


KCLE 302211Z 3022/3124 22012KT P6SM VCSH BKN045
  TEMPO 3022/3024 VRB40G50KT 1SM +TSRA OVC025CB
  FM310100 32007KT 4SM -TSRA BR OVC035CB
  FM310300 02008KT 3SM -SHRA BR OVC015
  FM310800 03014KT 3SM -SHRA BR OVC008
  FM311500 05014KT P6SM VCSH OVC015
  FM312100 03014KT P6SM VCSH OVC025


KCLT 302122Z 3021/3118 13007KT P6SM VCSH SCT060 BKN100
  TEMPO 3021/3023 BKN060
  FM302300 16007KT P6SM SCT250
  FM310500 16006KT P6SM BKN040
  FM310900 17003KT P6SM BKN010
  FM311400 21004KT P6SM BKN250


KCVG 302058Z 3021/3124 21012KT P6SM VCTS BKN050CB
  TEMPO 3021/3024 VRB15G25KT 3SM -TSRA OVC025CB
  FM310000 19007KT P6SM FEW050 SCT150
  FM310500 16008KT P6SM VCSH SCT025 BKN050
  FM311500 22010KT P6SM OVC025
  FM312100 27010KT P6SM BKN025


KDCA 302036Z 3021/3118 18010KT P6SM SCT060
  FM310500 17006KT P6SM SCT040
  FM311100 20007KT P6SM BKN050
  FM311400 21007KT P6SM SCT250
  FM311600 21007KT P6SM SCT050


KDEN 302054Z 3021/3124 10010KT P6SM FEW060 SCT120
  FM310300 15008KT P6SM SCT110
  FM310500 21012KT P6SM SCT120
  FM311600 30006KT P6SM SCT080 SCT120


KDFW 302101Z 3021/3124 33010KT P6SM BKN025
  FM310000 01008KT P6SM BKN250


KDTW 302103Z 3021/3124 14008KT 1SM TSRA BR OVC015CB
  FM302200 03013G20KT 4SM -SHRA BR OVC007
  FM310500 03014G23KT 2SM SHRA BR OVC007
  FM311800 03014G23KT 5SM -SHRA BR SCT007 OVC020


KEWR 302033Z 3021/3124 16011G18KT P6SM VCSH SCT045
  FM310000 18010KT P6SM FEW045 SCT250
  FM310400 21009KT P6SM SCT150
  FM310800 21008KT 4SM BR VCSH SCT008 SCT060 BKN150
  FM311000 21008KT 2SM BR VCSH BKN008
  FM311400 20008KT P6SM VCSH SCT025 BKN060
  FM311600 20008KT 4SM SHRA BKN045
  PROB30 3116/3120 2SM TSRA BKN030CB
  FM312000 14008KT 4SM SHRA BKN045
  PROB30 3120/3124 2SM TSRA BKN030CB


KFLL 302141Z 3022/3118 09012KT P6SM FEW030
  FM310600 11005KT P6SM FEW025
  FM311500 11008KT P6SM VCSH SCT030


KIAD 302036Z 3021/3124 19011KT P6SM BKN060
  FM302200 19010KT P6SM SCT060
  FM310200 17006KT P6SM SCT050
  FM310600 16004KT P6SM BKN040
  FM311400 21006KT P6SM SCT110
  FM311700 20007KT P6SM BKN060


KIAH 302101Z 3021/3124 20013G23KT P6SM -SHRA SCT035 BKN060 OVC200
  TEMPO 3021/3024 VRB10G40KT 3SM TSRA BKN030CB OVC060
  FM310300 VRB03KT P6SM VCSH SCT020 BKN120
  FM310900 34002KT P6SM VCTS SCT020CB BKN110
  FM311300 34005KT P6SM SCT090
  FM311700 35007KT P6SM SCT040


KJFK 302033Z 3021/3124 18024G33KT P6SM SCT060 SCT250
  FM310100 18018G24KT P6SM SCT250
  FM310300 19012KT P6SM SCT150 SCT250
  FM310800 20010KT 2SM BR BKN005
  FM311500 20010KT P6SM VCSH SCT035 BKN060
  FM311800 18010KT 4SM SHRA BKN045
  PROB30 3118/3124 2SM TSRA BKN030CB


KLAS 302047Z 3021/3118 16010KT P6SM SCT250
  FM310100 20009KT P6SM SCT250
  FM311400 VRB04KT P6SM SKC


KLAX 302033Z 3021/3124 25012KT P6SM SCT010 SCT250
  FM310200 25006KT 6SM BR BKN008
  FM310500 VRB03KT 1SM BR OVC004
  FM311200 10005KT 3SM BR OVC006
  FM311700 VRB03KT 5SM HZ BKN010
  FM312000 24010KT 6SM HZ SCT012


KLGA 302033Z 3021/3118 18020G28KT P6SM SCT045
  FM310000 18014G22KT P6SM FEW045 SCT250
  FM310200 19012KT P6SM SCT150 SCT250
  FM310900 21008KT 2SM BR BKN005
  FM311400 22008KT P6SM VCSH SCT035 BKN060


KMCO 302050Z 3021/3118 10012KT P6SM VCSH SCT050
  TEMPO 3021/3022 BKN050
  FM310100 09006KT P6SM SCT035 SCT060 BKN250
  FM310600 09003KT P6SM SCT030
  FM311400 11006KT P6SM VCSH FEW015 SCT025 BKN080


KMDW 302203Z 3022/3118 02020G30KT 3SM RA BR OVC008 WS015/04050KT
  FM310100 02019G29KT 6SM -RA BKN005 OVC010 WS018/04050KT
  FM310400 02018G28KT P6SM BKN015
  FM311200 03017G27KT P6SM OVC025


KMEM 302055Z 3021/3118 25012G20KT P6SM VCTS SCT035 BKN050CB
  FM310000 26005KT P6SM BKN050
  FM310500 VRB04KT P6SM -SHRA VCTS BKN025CB OVC035
  TEMPO 3108/3112 4SM -TSRA BKN015CB OVC025
  FM311600 36006KT P6SM VCSH SCT012 OVC020


KMIA 302141Z 3022/3118 09010KT P6SM FEW035 SCT050
  FM310600 09005KT P6SM FEW025
  FM311500 12008KT P6SM VCSH SCT030


KMSP 302008Z 3020/3124 01012G17KT P6SM SCT040 BKN250
  FM310100 03006KT P6SM FEW250
  FM311200 08006KT P6SM SCT250
  FM311800 10008KT P6SM FEW120 BKN250


KORD 302203Z 3022/3124 02020G30KT 3SM RA BR OVC007 WS015/04050KT
  FM310100 02019G29KT 6SM -RA BKN005 OVC010 WS018/04050KT
  FM310400 02018G28KT P6SM BKN015
  FM311200 03017G27KT P6SM OVC025
  FM311800 05018G25KT P6SM BKN025


KPDX 302114Z 3021/3118 32005KT P6SM BKN250
  FM310600 32004KT P6SM BKN140 OVC200
  FM311400 32003KT P6SM BKN100 BKN250


KPHL 302109Z 3021/3124 19014KT P6SM FEW045 SCT080
  FM310000 19010KT P6SM SCT050 BKN200
  FM311000 19005KT 6SM BR SCT015
  FM311400 20008KT P6SM SCT040
  FM311900 20010KT P6SM VCSH BKN050


KPHX 302116Z 3021/3118 27008KT P6SM FEW120 SCT250
  TEMPO 3108/3112 35005KT
  FM311200 12005KT P6SM FEW250


KPIT 302153Z 3022/3124 21012KT P6SM SCT050 BKN100
  FM302300 23005KT P6SM -TSRA BKN040CB
  FM310000 VRB04KT P6SM SCT040 BKN060
  FM311400 22008KT P6SM -SHRA BKN025


KSAN 302021Z 3020/3124 VRB05KT P6SM BKN015
  FM302100 27010KT P6SM SCT015
  FM310200 VRB05KT P6SM SCT010
  FM310500 VRB04KT P6SM OVC010
  FM311500 25003KT P6SM BKN015
  FM311900 25010KT P6SM SCT015


KSEA 302101Z 3021/3124 21007KT P6SM SCT250
  FM310000 26006KT P6SM SCT250
  FM310400 29004KT P6SM SCT250
  FM311300 VRB03KT P6SM BKN010
  FM311700 30004KT P6SM SCT250


KSFO 302004Z 3020/3124 28015G20KT P6SM FEW007
  FM302300 28020G26KT P6SM FEW015
  FM310300 28015KT P6SM SCT010
  FM310500 28010KT P6SM OVC008


KSLC 302148Z 3022/3124 17010KT P6SM FEW120 SCT180
  TEMPO 3022/3024 33005KT
  FM310200 15009KT P6SM SCT200


KSTL 302049Z 3021/3124 34014KT P6SM VCSH SCT009 OVC015
  FM310200 36010KT 6SM BR BKN009 OVC012
  FM311700 01010KT P6SM OVC015


KTPA 302103Z 3021/3118 30009KT P6SM VCTS SCT050CB BKN250
  FM310200 02005KT P6SM SCT035 BKN250
  FM310600 10005KT P6SM FEW040 SCT250
  FM311400 VRB06KT P6SM SCT050 SCT250